sensor_id;sensor_type;location;lat;lon;timestamp;P1;durP1;ratioP1;P2;durP2;ratioP2
80370;SDS011;69894;48.124;11.542;2023-05-17T00:00:09;4.45;;;1.50;;
80370;SDS011;69894;48.124;11.542;2023-05-17T00:02:35;9.30;;;2.13;;
80370;SDS011;69894;48.124;11.542;2023-05-17T00:05:01;6.90;;;1.88;;
80370;SDS011;69894;48.124;11.542;2023-05-17T00:07:27;6.63;;;1.40;;
80370;SDS011;69894;48.124;11.542;2023-05-17T00:09:52;2.92;;;1.23;;
80370;SDS011;69894;48.124;11.542;2023-05-17T00:12:18;3.20;;;1.23;;
80370;SDS011;69894;48.124;11.542;2023-05-17T00:14:43;4.00;;;1.70;;
80370;SDS011;69894;48.124;11.542;2023-05-17T00:17:08;4.45;;;1.23;;
80370;SDS011;69894;48.124;11.542;2023-05-17T00:19:34;5.53;;;1.63;;
80370;SDS011;69894;48.124;11.542;2023-05-17T00:21:59;3.40;;;1.08;;
80370;SDS011;69894;48.124;11.542;2023-05-17T00:24:24;3.90;;;1.30;;
80370;SDS011;69894;48.124;11.542;2023-05-17T00:26:51;3.05;;;1.10;;
80370;SDS011;69894;48.124;11.542;2023-05-17T00:29:19;4.30;;;1.58;;
80370;SDS011;69894;48.124;11.542;2023-05-17T00:31:44;7.47;;;1.58;;
80370;SDS011;69894;48.124;11.542;2023-05-17T00:34:10;6.13;;;1.50;;
80370;SDS011;69894;48.124;11.542;2023-05-17T00:36:35;6.30;;;1.67;;
80370;SDS011;69894;48.124;11.542;2023-05-17T00:39:01;13.95;;;1.70;;
80370;SDS011;69894;48.124;11.542;2023-05-17T00:41:26;3.42;;;1.02;;
80370;SDS011;69894;48.124;11.542;2023-05-17T00:43:52;4.80;;;1.35;;
80370;SDS011;69894;48.124;11.542;2023-05-17T00:46:17;2.75;;;1.17;;
80370;SDS011;69894;48.124;11.542;2023-05-17T00:48:42;7.32;;;1.50;;
80370;SDS011;69894;48.124;11.542;2023-05-17T00:51:08;6.22;;;1.30;;
80370;SDS011;69894;48.124;11.542;2023-05-17T00:53:34;7.25;;;1.30;;
80370;SDS011;69894;48.124;11.542;2023-05-17T00:56:01;3.00;;;1.40;;
80370;SDS011;69894;48.124;11.542;2023-05-17T00:58:27;4.00;;;1.52;;
80370;SDS011;69894;48.124;11.542;2023-05-17T01:00:52;6.47;;;1.27;;
80370;SDS011;69894;48.124;11.542;2023-05-17T01:03:18;2.80;;;1.40;;
80370;SDS011;69894;48.124;11.542;2023-05-17T01:05:46;5.05;;;1.52;;
80370;SDS011;69894;48.124;11.542;2023-05-17T01:08:11;6.22;;;1.73;;
80370;SDS011;69894;48.124;11.542;2023-05-17T01:10:49;5.45;;;1.35;;
80370;SDS011;69894;48.124;11.542;2023-05-17T01:25:25;5.15;;;1.40;;
80370;SDS011;69894;48.124;11.542;2023-05-17T01:27:53;4.63;;;1.55;;
80370;SDS011;69894;48.124;11.542;2023-05-17T01:30:20;4.68;;;1.50;;
80370;SDS011;69894;48.124;11.542;2023-05-17T01:32:47;3.47;;;1.33;;
80370;SDS011;69894;48.124;11.542;2023-05-17T01:35:13;5.47;;;1.60;;
80370;SDS011;69894;48.124;11.542;2023-05-17T01:37:39;6.57;;;1.88;;
80370;SDS011;69894;48.124;11.542;2023-05-17T01:40:06;9.15;;;1.77;;
80370;SDS011;69894;48.124;11.542;2023-05-17T01:42:32;7.70;;;1.80;;
80370;SDS011;69894;48.124;11.542;2023-05-17T01:50:02;6.53;;;1.52;;
80370;SDS011;69894;48.124;11.542;2023-05-17T01:52:29;5.63;;;1.75;;
80370;SDS011;69894;48.124;11.542;2023-05-17T01:55:09;4.95;;;1.70;;
80370;SDS011;69894;48.124;11.542;2023-05-17T01:57:43;8.27;;;1.65;;
80370;SDS011;69894;48.124;11.542;2023-05-17T02:00:09;4.68;;;1.80;;
80370;SDS011;69894;48.124;11.542;2023-05-17T02:02:35;7.82;;;1.95;;
80370;SDS011;69894;48.124;11.542;2023-05-17T02:05:01;6.03;;;1.92;;
80370;SDS011;69894;48.124;11.542;2023-05-17T02:07:26;5.60;;;1.88;;
80370;SDS011;69894;48.124;11.542;2023-05-17T02:09:51;10.30;;;2.25;;
80370;SDS011;69894;48.124;11.542;2023-05-17T02:12:17;5.43;;;1.80;;
80370;SDS011;69894;48.124;11.542;2023-05-17T02:14:42;5.55;;;1.75;;
80370;SDS011;69894;48.124;11.542;2023-05-17T02:17:07;8.18;;;2.50;;
80370;SDS011;69894;48.124;11.542;2023-05-17T02:19:33;7.20;;;2.03;;
80370;SDS011;69894;48.124;11.542;2023-05-17T02:21:58;9.32;;;2.03;;
80370;SDS011;69894;48.124;11.542;2023-05-17T02:24:24;8.27;;;2.22;;
80370;SDS011;69894;48.124;11.542;2023-05-17T02:26:49;5.00;;;1.83;;
80370;SDS011;69894;48.124;11.542;2023-05-17T02:29:14;5.78;;;1.88;;
80370;SDS011;69894;48.124;11.542;2023-05-17T02:31:40;4.40;;;2.03;;
80370;SDS011;69894;48.124;11.542;2023-05-17T02:34:05;7.22;;;1.83;;
80370;SDS011;69894;48.124;11.542;2023-05-17T02:36:31;7.22;;;1.92;;
80370;SDS011;69894;48.124;11.542;2023-05-17T02:38:56;5.57;;;1.92;;
80370;SDS011;69894;48.124;11.542;2023-05-17T02:41:22;7.13;;;2.00;;
80370;SDS011;69894;48.124;11.542;2023-05-17T02:43:47;3.97;;;1.60;;
80370;SDS011;69894;48.124;11.542;2023-05-17T02:46:13;8.45;;;1.85;;
80370;SDS011;69894;48.124;11.542;2023-05-17T02:48:38;6.15;;;1.80;;
80370;SDS011;69894;48.124;11.542;2023-05-17T02:51:04;9.50;;;2.20;;
80370;SDS011;69894;48.124;11.542;2023-05-17T02:53:29;7.78;;;2.40;;
80370;SDS011;69894;48.124;11.542;2023-05-17T02:55:55;11.73;;;1.92;;
80370;SDS011;69894;48.124;11.542;2023-05-17T02:58:23;4.70;;;1.98;;
80370;SDS011;69894;48.124;11.542;2023-05-17T03:00:49;3.92;;;1.42;;
80370;SDS011;69894;48.124;11.542;2023-05-17T03:03:15;3.92;;;1.67;;
80370;SDS011;69894;48.124;11.542;2023-05-17T03:05:40;8.35;;;2.25;;
80370;SDS011;69894;48.124;11.542;2023-05-17T03:08:06;5.57;;;1.67;;
80370;SDS011;69894;48.124;11.542;2023-05-17T03:10:31;4.57;;;1.50;;
80370;SDS011;69894;48.124;11.542;2023-05-17T03:12:56;6.40;;;2.10;;
80370;SDS011;69894;48.124;11.542;2023-05-17T03:15:22;5.30;;;1.98;;
80370;SDS011;69894;48.124;11.542;2023-05-17T03:17:50;6.00;;;1.85;;
80370;SDS011;69894;48.124;11.542;2023-05-17T03:20:16;6.65;;;1.42;;
80370;SDS011;69894;48.124;11.542;2023-05-17T03:22:42;7.03;;;1.50;;
80370;SDS011;69894;48.124;11.542;2023-05-17T03:25:07;8.23;;;1.60;;
80370;SDS011;69894;48.124;11.542;2023-05-17T03:27:33;3.17;;;1.33;;
80370;SDS011;69894;48.124;11.542;2023-05-17T03:29:58;5.20;;;1.80;;
80370;SDS011;69894;48.124;11.542;2023-05-17T03:32:24;4.18;;;1.58;;
80370;SDS011;69894;48.124;11.542;2023-05-17T03:34:50;6.32;;;1.73;;
80370;SDS011;69894;48.124;11.542;2023-05-17T03:37:16;7.03;;;1.60;;
80370;SDS011;69894;48.124;11.542;2023-05-17T03:39:41;4.70;;;1.60;;
80370;SDS011;69894;48.124;11.542;2023-05-17T03:42:06;4.07;;;1.33;;
80370;SDS011;69894;48.124;11.542;2023-05-17T03:44:32;7.28;;;2.08;;
80370;SDS011;69894;48.124;11.542;2023-05-17T03:46:57;3.08;;;1.42;;
80370;SDS011;69894;48.124;11.542;2023-05-17T03:49:23;5.13;;;1.58;;
80370;SDS011;69894;48.124;11.542;2023-05-17T03:51:48;6.03;;;1.38;;
80370;SDS011;69894;48.124;11.542;2023-05-17T03:54:13;4.45;;;1.50;;
80370;SDS011;69894;48.124;11.542;2023-05-17T03:56:39;6.60;;;1.48;;
80370;SDS011;69894;48.124;11.542;2023-05-17T03:59:04;4.32;;;1.40;;
80370;SDS011;69894;48.124;11.542;2023-05-17T04:01:30;4.38;;;1.40;;
80370;SDS011;69894;48.124;11.542;2023-05-17T04:03:55;5.20;;;1.40;;
80370;SDS011;69894;48.124;11.542;2023-05-17T04:06:21;2.35;;;1.00;;
80370;SDS011;69894;48.124;11.542;2023-05-17T04:08:46;6.00;;;1.17;;
80370;SDS011;69894;48.124;11.542;2023-05-17T04:11:12;4.93;;;1.55;;
80370;SDS011;69894;48.124;11.542;2023-05-17T04:13:38;4.63;;;1.42;;
80370;SDS011;69894;48.124;11.542;2023-05-17T04:16:04;7.22;;;1.58;;
80370;SDS011;69894;48.124;11.542;2023-05-17T04:18:34;5.57;;;1.63;;
80370;SDS011;69894;48.124;11.542;2023-05-17T04:21:01;3.38;;;1.00;;
80370;SDS011;69894;48.124;11.542;2023-05-17T04:23:27;5.53;;;1.33;;
80370;SDS011;69894;48.124;11.542;2023-05-17T04:25:52;4.05;;;1.23;;
80370;SDS011;69894;48.124;11.542;2023-05-17T04:28:18;4.43;;;1.48;;
80370;SDS011;69894;48.124;11.542;2023-05-17T04:30:45;5.78;;;1.08;;
80370;SDS011;69894;48.124;11.542;2023-05-17T04:33:11;4.10;;;1.35;;
80370;SDS011;69894;48.124;11.542;2023-05-17T04:35:37;5.10;;;1.27;;
80370;SDS011;69894;48.124;11.542;2023-05-17T04:38:05;5.00;;;1.00;;
80370;SDS011;69894;48.124;11.542;2023-05-17T04:40:31;5.03;;;1.30;;
80370;SDS011;69894;48.124;11.542;2023-05-17T04:42:56;4.13;;;1.70;;
80370;SDS011;69894;48.124;11.542;2023-05-17T04:45:22;3.95;;;2.15;;
80370;SDS011;69894;48.124;11.542;2023-05-17T04:47:48;7.38;;;1.48;;
80370;SDS011;69894;48.124;11.542;2023-05-17T04:50:15;4.93;;;1.65;;
80370;SDS011;69894;48.124;11.542;2023-05-17T04:52:41;5.35;;;1.30;;
80370;SDS011;69894;48.124;11.542;2023-05-17T04:55:09;5.78;;;1.70;;
80370;SDS011;69894;48.124;11.542;2023-05-17T04:57:35;4.10;;;1.23;;
80370;SDS011;69894;48.124;11.542;2023-05-17T05:00:02;2.33;;;0.90;;
80370;SDS011;69894;48.124;11.542;2023-05-17T05:02:31;4.00;;;1.02;;
80370;SDS011;69894;48.124;11.542;2023-05-17T05:04:57;4.05;;;1.13;;
80370;SDS011;69894;48.124;11.542;2023-05-17T05:07:22;4.57;;;1.08;;
80370;SDS011;69894;48.124;11.542;2023-05-17T05:09:48;5.90;;;1.27;;
80370;SDS011;69894;48.124;11.542;2023-05-17T05:12:13;6.10;;;1.35;;
80370;SDS011;69894;48.124;11.542;2023-05-17T05:14:39;1.00;;;0.70;;
80370;SDS011;69894;48.124;11.542;2023-05-17T05:17:04;1.63;;;1.00;;
80370;SDS011;69894;48.124;11.542;2023-05-17T05:19:30;2.47;;;0.77;;
80370;SDS011;69894;48.124;11.542;2023-05-17T05:21:55;3.28;;;1.05;;
80370;SDS011;69894;48.124;11.542;2023-05-17T05:24:21;7.55;;;1.58;;
80370;SDS011;69894;48.124;11.542;2023-05-17T05:26:46;1.80;;;0.60;;
80370;SDS011;69894;48.124;11.542;2023-05-17T05:29:12;5.30;;;1.38;;
80370;SDS011;69894;48.124;11.542;2023-05-17T05:31:37;5.80;;;1.48;;
80370;SDS011;69894;48.124;11.542;2023-05-17T05:34:02;5.63;;;1.10;;
80370;SDS011;69894;48.124;11.542;2023-05-17T05:36:28;4.15;;;0.88;;
80370;SDS011;69894;48.124;11.542;2023-05-17T05:38:53;5.60;;;1.20;;
80370;SDS011;69894;48.124;11.542;2023-05-17T05:41:19;3.60;;;1.08;;
80370;SDS011;69894;48.124;11.542;2023-05-17T05:43:46;4.63;;;1.00;;
80370;SDS011;69894;48.124;11.542;2023-05-17T05:46:12;2.30;;;1.08;;
80370;SDS011;69894;48.124;11.542;2023-05-17T05:48:37;3.47;;;1.02;;
80370;SDS011;69894;48.124;11.542;2023-05-17T05:51:06;4.95;;;1.10;;
80370;SDS011;69894;48.124;11.542;2023-05-17T05:53:32;2.92;;;1.20;;
80370;SDS011;69894;48.124;11.542;2023-05-17T05:55:57;3.72;;;1.10;;
80370;SDS011;69894;48.124;11.542;2023-05-17T05:58:23;6.38;;;1.30;;
80370;SDS011;69894;48.124;11.542;2023-05-17T06:00:48;5.20;;;1.08;;
80370;SDS011;69894;48.124;11.542;2023-05-17T06:03:15;4.28;;;1.10;;
80370;SDS011;69894;48.124;11.542;2023-05-17T06:05:41;4.55;;;1.05;;
80370;SDS011;69894;48.124;11.542;2023-05-17T06:08:06;6.55;;;1.20;;
80370;SDS011;69894;48.124;11.542;2023-05-17T06:10:31;1.98;;;0.93;;
80370;SDS011;69894;48.124;11.542;2023-05-17T06:12:57;4.00;;;0.93;;
80370;SDS011;69894;48.124;11.542;2023-05-17T06:15:25;3.30;;;1.17;;
80370;SDS011;69894;48.124;11.542;2023-05-17T06:17:51;4.93;;;1.23;;
80370;SDS011;69894;48.124;11.542;2023-05-17T06:20:16;3.13;;;1.50;;
80370;SDS011;69894;48.124;11.542;2023-05-17T06:22:42;2.97;;;1.25;;
80370;SDS011;69894;48.124;11.542;2023-05-17T06:25:07;2.58;;;1.20;;
80370;SDS011;69894;48.124;11.542;2023-05-17T06:27:35;4.10;;;1.10;;
80370;SDS011;69894;48.124;11.542;2023-05-17T06:30:01;2.05;;;0.93;;
80370;SDS011;69894;48.124;11.542;2023-05-17T06:32:28;3.95;;;1.10;;
80370;SDS011;69894;48.124;11.542;2023-05-17T06:34:55;4.32;;;1.02;;
80370;SDS011;69894;48.124;11.542;2023-05-17T06:37:21;3.78;;;0.88;;
80370;SDS011;69894;48.124;11.542;2023-05-17T06:39:47;2.97;;;0.80;;
80370;SDS011;69894;48.124;11.542;2023-05-17T06:42:14;3.10;;;1.10;;
80370;SDS011;69894;48.124;11.542;2023-05-17T06:44:40;2.00;;;1.20;;
80370;SDS011;69894;48.124;11.542;2023-05-17T06:47:05;3.85;;;0.93;;
80370;SDS011;69894;48.124;11.542;2023-05-17T06:49:31;3.58;;;1.02;;
80370;SDS011;69894;48.124;11.542;2023-05-17T06:51:56;5.05;;;1.10;;
80370;SDS011;69894;48.124;11.542;2023-05-17T06:54:27;4.25;;;1.00;;
80370;SDS011;69894;48.124;11.542;2023-05-17T06:56:53;5.43;;;1.10;;
80370;SDS011;69894;48.124;11.542;2023-05-17T06:59:19;6.10;;;1.25;;
80370;SDS011;69894;48.124;11.542;2023-05-17T07:01:44;3.88;;;1.08;;
80370;SDS011;69894;48.124;11.542;2023-05-17T07:04:10;2.85;;;0.88;;
80370;SDS011;69894;48.124;11.542;2023-05-17T07:06:35;5.55;;;1.10;;
80370;SDS011;69894;48.124;11.542;2023-05-17T07:09:00;2.63;;;0.93;;
80370;SDS011;69894;48.124;11.542;2023-05-17T07:11:30;3.10;;;1.15;;
80370;SDS011;69894;48.124;11.542;2023-05-17T07:13:57;4.97;;;1.17;;
80370;SDS011;69894;48.124;11.542;2023-05-17T07:16:23;4.43;;;0.93;;
80370;SDS011;69894;48.124;11.542;2023-05-17T07:18:53;4.30;;;0.90;;
80370;SDS011;69894;48.124;11.542;2023-05-17T07:21:22;3.25;;;1.10;;
80370;SDS011;69894;48.124;11.542;2023-05-17T07:23:48;4.28;;;2.10;;
80370;SDS011;69894;48.124;11.542;2023-05-17T07:26:17;3.90;;;1.80;;
80370;SDS011;69894;48.124;11.542;2023-05-17T07:28:48;2.95;;;1.10;;
80370;SDS011;69894;48.124;11.542;2023-05-17T07:31:14;7.57;;;1.35;;
80370;SDS011;69894;48.124;11.542;2023-05-17T07:33:40;1.92;;;1.40;;
80370;SDS011;69894;48.124;11.542;2023-05-17T07:36:05;5.20;;;1.67;;
80370;SDS011;69894;48.124;11.542;2023-05-17T07:38:31;8.80;;;1.60;;
80370;SDS011;69894;48.124;11.542;2023-05-17T07:40:59;1.50;;;1.20;;
80370;SDS011;69894;48.124;11.542;2023-05-17T07:43:25;3.13;;;1.77;;
80370;SDS011;69894;48.124;11.542;2023-05-17T07:45:51;3.08;;;0.90;;
80370;SDS011;69894;48.124;11.542;2023-05-17T07:48:16;8.30;;;1.23;;
80370;SDS011;69894;48.124;11.542;2023-05-17T07:50:42;3.60;;;1.10;;
80370;SDS011;69894;48.124;11.542;2023-05-17T07:53:09;2.25;;;0.98;;
80370;SDS011;69894;48.124;11.542;2023-05-17T07:55:38;5.13;;;1.20;;
80370;SDS011;69894;48.124;11.542;2023-05-17T07:58:08;1.90;;;0.93;;
80370;SDS011;69894;48.124;11.542;2023-05-17T08:00:34;3.85;;;1.30;;
80370;SDS011;69894;48.124;11.542;2023-05-17T08:02:59;3.22;;;1.20;;
80370;SDS011;69894;48.124;11.542;2023-05-17T08:05:25;3.83;;;1.02;;
80370;SDS011;69894;48.124;11.542;2023-05-17T08:07:52;3.15;;;1.35;;
80370;SDS011;69894;48.124;11.542;2023-05-17T08:10:17;4.97;;;1.05;;
80370;SDS011;69894;48.124;11.542;2023-05-17T08:12:43;4.05;;;0.82;;
80370;SDS011;69894;48.124;11.542;2023-05-17T08:15:12;3.75;;;1.10;;
80370;SDS011;69894;48.124;11.542;2023-05-17T08:17:37;3.97;;;1.35;;
80370;SDS011;69894;48.124;11.542;2023-05-17T08:20:03;6.23;;;1.13;;
80370;SDS011;69894;48.124;11.542;2023-05-17T08:22:30;4.18;;;1.40;;
80370;SDS011;69894;48.124;11.542;2023-05-17T08:24:55;5.38;;;1.20;;
80370;SDS011;69894;48.124;11.542;2023-05-17T08:27:21;5.70;;;1.17;;
80370;SDS011;69894;48.124;11.542;2023-05-17T08:29:46;3.33;;;1.73;;
80370;SDS011;69894;48.124;11.542;2023-05-17T08:32:11;3.88;;;1.55;;
80370;SDS011;69894;48.124;11.542;2023-05-17T08:34:37;4.10;;;1.08;;
80370;SDS011;69894;48.124;11.542;2023-05-17T08:37:02;3.95;;;1.35;;
80370;SDS011;69894;48.124;11.542;2023-05-17T08:39:28;3.65;;;1.00;;
80370;SDS011;69894;48.124;11.542;2023-05-17T08:41:53;5.88;;;1.25;;
80370;SDS011;69894;48.124;11.542;2023-05-17T08:44:25;3.33;;;1.27;;
80370;SDS011;69894;48.124;11.542;2023-05-17T08:46:52;4.78;;;1.20;;
80370;SDS011;69894;48.124;11.542;2023-05-17T08:49:21;3.58;;;1.17;;
80370;SDS011;69894;48.124;11.542;2023-05-17T08:51:51;3.75;;;1.30;;
80370;SDS011;69894;48.124;11.542;2023-05-17T08:54:18;3.93;;;1.20;;
80370;SDS011;69894;48.124;11.542;2023-05-17T08:56:43;6.70;;;1.30;;
80370;SDS011;69894;48.124;11.542;2023-05-17T08:59:10;4.07;;;1.00;;
80370;SDS011;69894;48.124;11.542;2023-05-17T09:01:37;5.70;;;1.10;;
80370;SDS011;69894;48.124;11.542;2023-05-17T09:04:04;2.65;;;0.70;;
80370;SDS011;69894;48.124;11.542;2023-05-17T09:06:32;2.92;;;0.90;;
80370;SDS011;69894;48.124;11.542;2023-05-17T09:08:58;5.75;;;1.00;;
80370;SDS011;69894;48.124;11.542;2023-05-17T09:11:31;4.82;;;0.90;;
80370;SDS011;69894;48.124;11.542;2023-05-17T09:14:01;1.42;;;0.65;;
80370;SDS011;69894;48.124;11.542;2023-05-17T09:16:31;1.98;;;0.82;;
80370;SDS011;69894;48.124;11.542;2023-05-17T09:19:01;2.65;;;0.77;;
80370;SDS011;69894;48.124;11.542;2023-05-17T09:21:29;4.45;;;1.08;;
80370;SDS011;69894;48.124;11.542;2023-05-17T09:23:56;3.67;;;1.00;;
80370;SDS011;69894;48.124;11.542;2023-05-17T09:26:24;2.55;;;0.95;;
80370;SDS011;69894;48.124;11.542;2023-05-17T09:28:50;7.32;;;1.23;;
80370;SDS011;69894;48.124;11.542;2023-05-17T09:31:17;2.50;;;0.80;;
80370;SDS011;69894;48.124;11.542;2023-05-17T09:33:46;5.22;;;1.60;;
80370;SDS011;69894;48.124;11.542;2023-05-17T09:36:22;4.47;;;1.20;;
80370;SDS011;69894;48.124;11.542;2023-05-17T09:38:56;3.53;;;1.35;;
80370;SDS011;69894;48.124;11.542;2023-05-17T09:41:46;3.20;;;1.20;;
80370;SDS011;69894;48.124;11.542;2023-05-17T09:44:11;2.88;;;1.10;;
80370;SDS011;69894;48.124;11.542;2023-05-17T09:46:41;4.00;;;0.95;;
80370;SDS011;69894;48.124;11.542;2023-05-17T09:49:08;3.00;;;1.13;;
80370;SDS011;69894;48.124;11.542;2023-05-17T09:51:44;1.95;;;0.75;;
80370;SDS011;69894;48.124;11.542;2023-05-17T09:54:10;3.80;;;1.58;;
80370;SDS011;69894;48.124;11.542;2023-05-17T09:56:36;2.92;;;1.20;;
80370;SDS011;69894;48.124;11.542;2023-05-17T09:59:02;5.80;;;1.20;;
80370;SDS011;69894;48.124;11.542;2023-05-17T10:01:30;3.97;;;1.63;;
80370;SDS011;69894;48.124;11.542;2023-05-17T10:03:59;3.42;;;1.15;;
80370;SDS011;69894;48.124;11.542;2023-05-17T10:06:27;5.72;;;1.50;;
80370;SDS011;69894;48.124;11.542;2023-05-17T10:08:54;4.35;;;1.40;;
80370;SDS011;69894;48.124;11.542;2023-05-17T10:11:26;6.47;;;1.40;;
80370;SDS011;69894;48.124;11.542;2023-05-17T10:14:22;3.95;;;1.17;;
80370;SDS011;69894;48.124;11.542;2023-05-17T10:16:51;4.97;;;1.02;;
80370;SDS011;69894;48.124;11.542;2023-05-17T10:19:19;5.53;;;1.45;;
80370;SDS011;69894;48.124;11.542;2023-05-17T10:21:46;5.30;;;0.90;;
80370;SDS011;69894;48.124;11.542;2023-05-17T10:24:12;4.47;;;1.10;;
80370;SDS011;69894;48.124;11.542;2023-05-17T10:26:37;3.65;;;0.90;;
80370;SDS011;69894;48.124;11.542;2023-05-17T10:29:03;3.83;;;1.08;;
80370;SDS011;69894;48.124;11.542;2023-05-17T10:31:30;5.18;;;1.10;;
80370;SDS011;69894;48.124;11.542;2023-05-17T10:34:00;5.57;;;1.38;;
80370;SDS011;69894;48.124;11.542;2023-05-17T10:36:26;2.38;;;0.82;;
80370;SDS011;69894;48.124;11.542;2023-05-17T10:38:52;2.47;;;0.85;;
80370;SDS011;69894;48.124;11.542;2023-05-17T10:41:18;6.15;;;1.15;;
80370;SDS011;69894;48.124;11.542;2023-05-17T10:43:45;4.57;;;1.02;;
80370;SDS011;69894;48.124;11.542;2023-05-17T10:46:14;4.07;;;1.00;;
80370;SDS011;69894;48.124;11.542;2023-05-17T10:48:40;0.90;;;0.50;;
80370;SDS011;69894;48.124;11.542;2023-05-17T10:51:06;3.88;;;0.88;;
80370;SDS011;69894;48.124;11.542;2023-05-17T10:53:34;3.63;;;1.05;;
80370;SDS011;69894;48.124;11.542;2023-05-17T10:56:29;2.03;;;0.75;;
80370;SDS011;69894;48.124;11.542;2023-05-17T11:04:26;2.83;;;1.27;;
80370;SDS011;69894;48.124;11.542;2023-05-17T11:09:48;4.10;;;0.98;;
80370;SDS011;69894;48.124;11.542;2023-05-17T11:15:12;3.78;;;1.00;;
80370;SDS011;69894;48.124;11.542;2023-05-17T11:20:07;5.88;;;1.17;;
80370;SDS011;69894;48.124;11.542;2023-05-17T11:22:41;2.00;;;0.75;;
80370;SDS011;69894;48.124;11.542;2023-05-17T11:25:12;4.68;;;1.05;;
80370;SDS011;69894;48.124;11.542;2023-05-17T11:27:43;2.88;;;0.95;;
80370;SDS011;69894;48.124;11.542;2023-05-17T11:30:31;2.20;;;0.93;;
80370;SDS011;69894;48.124;11.542;2023-05-17T11:32:59;4.18;;;0.70;;
80370;SDS011;69894;48.124;11.542;2023-05-17T11:35:36;5.70;;;1.20;;
80370;SDS011;69894;48.124;11.542;2023-05-17T11:38:18;3.15;;;1.00;;
80370;SDS011;69894;48.124;11.542;2023-05-17T11:40:52;3.53;;;0.85;;
80370;SDS011;69894;48.124;11.542;2023-05-17T11:43:18;1.40;;;0.68;;
80370;SDS011;69894;48.124;11.542;2023-05-17T11:45:50;5.28;;;1.05;;
80370;SDS011;69894;48.124;11.542;2023-05-17T11:48:21;1.92;;;0.88;;
80370;SDS011;69894;48.124;11.542;2023-05-17T11:50:49;2.60;;;0.85;;
80370;SDS011;69894;48.124;11.542;2023-05-17T11:53:16;3.88;;;1.20;;
80370;SDS011;69894;48.124;11.542;2023-05-17T11:55:42;3.33;;;1.58;;
80370;SDS011;69894;48.124;11.542;2023-05-17T11:58:19;3.17;;;1.10;;
80370;SDS011;69894;48.124;11.542;2023-05-17T12:00:51;5.80;;;0.98;;
80370;SDS011;69894;48.124;11.542;2023-05-17T12:03:19;4.10;;;1.30;;
80370;SDS011;69894;48.124;11.542;2023-05-17T12:05:45;5.05;;;1.30;;
80370;SDS011;69894;48.124;11.542;2023-05-17T12:08:16;5.03;;;1.10;;
80370;SDS011;69894;48.124;11.542;2023-05-17T12:11:00;3.97;;;1.20;;
80370;SDS011;69894;48.124;11.542;2023-05-17T12:13:27;2.83;;;1.00;;
80370;SDS011;69894;48.124;11.542;2023-05-17T12:15:57;2.83;;;1.10;;
80370;SDS011;69894;48.124;11.542;2023-05-17T12:18:37;5.22;;;1.33;;
80370;SDS011;69894;48.124;11.542;2023-05-17T12:21:06;2.38;;;0.98;;
80370;SDS011;69894;48.124;11.542;2023-05-17T12:23:33;6.80;;;1.30;;
80370;SDS011;69894;48.124;11.542;2023-05-17T12:26:07;5.25;;;1.52;;
80370;SDS011;69894;48.124;11.542;2023-05-17T12:28:43;3.15;;;1.15;;
80370;SDS011;69894;48.124;11.542;2023-05-17T12:31:12;3.10;;;1.23;;
80370;SDS011;69894;48.124;11.542;2023-05-17T12:33:41;1.58;;;0.90;;
80370;SDS011;69894;48.124;11.542;2023-05-17T12:36:08;3.22;;;1.45;;
80370;SDS011;69894;48.124;11.542;2023-05-17T12:38:35;3.85;;;0.90;;
80370;SDS011;69894;48.124;11.542;2023-05-17T12:41:02;3.75;;;1.00;;
80370;SDS011;69894;48.124;11.542;2023-05-17T12:43:29;3.38;;;0.98;;
80370;SDS011;69894;48.124;11.542;2023-05-17T12:46:06;2.28;;;1.13;;
80370;SDS011;69894;48.124;11.542;2023-05-17T12:48:36;2.80;;;1.15;;
80370;SDS011;69894;48.124;11.542;2023-05-17T12:53:35;3.83;;;1.33;;
80370;SDS011;69894;48.124;11.542;2023-05-17T12:56:02;3.83;;;1.35;;
80370;SDS011;69894;48.124;11.542;2023-05-17T12:58:27;3.40;;;1.27;;
80370;SDS011;69894;48.124;11.542;2023-05-17T13:00:58;6.75;;;1.08;;
80370;SDS011;69894;48.124;11.542;2023-05-17T13:03:24;3.08;;;1.10;;
80370;SDS011;69894;48.124;11.542;2023-05-17T13:06:01;5.35;;;1.20;;
80370;SDS011;69894;48.124;11.542;2023-05-17T13:08:31;3.10;;;1.20;;
80370;SDS011;69894;48.124;11.542;2023-05-17T13:11:07;5.53;;;1.42;;
80370;SDS011;69894;48.124;11.542;2023-05-17T13:13:34;4.13;;;1.48;;
80370;SDS011;69894;48.124;11.542;2023-05-17T13:15:59;5.57;;;1.30;;
80370;SDS011;69894;48.124;11.542;2023-05-17T13:18:25;2.97;;;1.20;;
80370;SDS011;69894;48.124;11.542;2023-05-17T13:20:51;4.85;;;1.58;;
80370;SDS011;69894;48.124;11.542;2023-05-17T13:23:16;3.83;;;1.33;;
80370;SDS011;69894;48.124;11.542;2023-05-17T13:25:42;7.00;;;1.65;;
80370;SDS011;69894;48.124;11.542;2023-05-17T13:28:07;2.92;;;1.20;;
80370;SDS011;69894;48.124;11.542;2023-05-17T13:30:33;5.57;;;1.70;;
80370;SDS011;69894;48.124;11.542;2023-05-17T13:32:58;5.85;;;1.90;;
80370;SDS011;69894;48.124;11.542;2023-05-17T13:35:24;3.13;;;1.30;;
80370;SDS011;69894;48.124;11.542;2023-05-17T13:37:50;2.60;;;1.40;;
80370;SDS011;69894;48.124;11.542;2023-05-17T13:40:23;3.83;;;1.45;;
80370;SDS011;69894;48.124;11.542;2023-05-17T13:42:48;5.45;;;1.95;;
80370;SDS011;69894;48.124;11.542;2023-05-17T13:45:14;3.03;;;1.10;;
80370;SDS011;69894;48.124;11.542;2023-05-17T13:47:42;4.10;;;1.17;;
80370;SDS011;69894;48.124;11.542;2023-05-17T13:50:14;3.95;;;1.40;;
80370;SDS011;69894;48.124;11.542;2023-05-17T13:52:43;3.38;;;1.40;;
80370;SDS011;69894;48.124;11.542;2023-05-17T13:55:10;3.35;;;1.63;;
80370;SDS011;69894;48.124;11.542;2023-05-17T13:57:37;4.47;;;1.33;;
80370;SDS011;69894;48.124;11.542;2023-05-17T14:00:06;5.72;;;1.80;;
80370;SDS011;69894;48.124;11.542;2023-05-17T14:02:32;3.78;;;1.20;;
80370;SDS011;69894;48.124;11.542;2023-05-17T14:04:58;4.40;;;1.73;;
80370;SDS011;69894;48.124;11.542;2023-05-17T14:07:24;5.10;;;1.45;;
80370;SDS011;69894;48.124;11.542;2023-05-17T14:09:50;3.88;;;1.67;;
80370;SDS011;69894;48.124;11.542;2023-05-17T14:12:16;3.92;;;1.77;;
80370;SDS011;69894;48.124;11.542;2023-05-17T14:14:41;4.63;;;1.50;;
80370;SDS011;69894;48.124;11.542;2023-05-17T14:17:06;4.10;;;1.40;;
80370;SDS011;69894;48.124;11.542;2023-05-17T14:19:32;4.63;;;1.70;;
80370;SDS011;69894;48.124;11.542;2023-05-17T14:21:57;4.00;;;1.60;;
80370;SDS011;69894;48.124;11.542;2023-05-17T14:24:22;4.43;;;1.92;;
80370;SDS011;69894;48.124;11.542;2023-05-17T14:26:48;7.10;;;1.90;;
80370;SDS011;69894;48.124;11.542;2023-05-17T14:29:13;4.28;;;1.85;;
80370;SDS011;69894;48.124;11.542;2023-05-17T14:31:39;4.90;;;1.58;;
80370;SDS011;69894;48.124;11.542;2023-05-17T14:34:05;3.45;;;1.27;;
80370;SDS011;69894;48.124;11.542;2023-05-17T14:36:31;5.55;;;1.40;;
80370;SDS011;69894;48.124;11.542;2023-05-17T14:38:59;4.65;;;1.67;;
80370;SDS011;69894;48.124;11.542;2023-05-17T14:41:26;4.55;;;1.67;;
80370;SDS011;69894;48.124;11.542;2023-05-17T14:43:51;3.95;;;1.40;;
80370;SDS011;69894;48.124;11.542;2023-05-17T14:46:16;4.03;;;1.70;;
80370;SDS011;69894;48.124;11.542;2023-05-17T14:48:43;4.05;;;1.60;;
80370;SDS011;69894;48.124;11.542;2023-05-17T14:51:08;5.78;;;1.90;;
80370;SDS011;69894;48.124;11.542;2023-05-17T14:53:34;6.35;;;1.65;;
80370;SDS011;69894;48.124;11.542;2023-05-17T14:55:59;5.65;;;1.50;;
80370;SDS011;69894;48.124;11.542;2023-05-17T14:58:27;4.13;;;1.60;;
80370;SDS011;69894;48.124;11.542;2023-05-17T15:00:55;4.78;;;1.80;;
80370;SDS011;69894;48.124;11.542;2023-05-17T15:03:24;3.60;;;1.60;;
80370;SDS011;69894;48.124;11.542;2023-05-17T15:05:54;4.78;;;1.73;;